createdAt,value
2022-08-04T00:00:57.297Z,27.20
2022-08-04T00:03:23.166Z,27.20
2022-08-04T00:06:01.421Z,27.20
2022-08-04T00:08:28.213Z,27.30
2022-08-04T00:10:32.797Z,27.30
2022-08-04T00:12:41.535Z,27.30
2022-08-04T00:14:51.206Z,27.20
2022-08-04T00:16:55.704Z,27.30
2022-08-04T00:19:05.357Z,27.30
2022-08-04T00:21:15.106Z,27.30
2022-08-04T00:23:19.743Z,27.30
2022-08-04T00:25:26.569Z,27.40
2022-08-04T00:27:33.263Z,27.50
2022-08-04T00:29:40.960Z,27.40
2022-08-04T00:31:54.882Z,27.40
2022-08-04T00:34:03.576Z,27.50
2022-08-04T00:36:07.947Z,27.50
2022-08-04T00:38:12.533Z,27.50
2022-08-04T00:40:41.733Z,27.60
2022-08-04T00:42:59.159Z,27.60
2022-08-04T00:45:31.175Z,27.60
2022-08-04T00:48:16.446Z,27.70
2022-08-04T00:50:41.966Z,27.80
2022-08-04T00:53:18.318Z,27.80
2022-08-04T00:55:56.673Z,27.80
2022-08-04T00:58:25.617Z,27.90
2022-08-04T01:00:34.629Z,27.90
2022-08-04T01:03:02.978Z,27.90
2022-08-04T01:05:29.677Z,27.90
2022-08-04T01:08:08.943Z,27.90
2022-08-04T01:10:31.782Z,27.90
2022-08-04T01:13:15.018Z,28.00
2022-08-04T01:15:57.125Z,28.00
2022-08-04T01:18:10.183Z,28.00
2022-08-04T01:20:18.847Z,28.00
2022-08-04T01:23:02.854Z,28.10
2022-08-04T01:25:39.289Z,28.10
2022-08-04T01:28:19.227Z,28.10
2022-08-04T01:30:24.082Z,28.10
2022-08-04T01:32:42.181Z,28.10
2022-08-04T01:35:05.981Z,28.20
2022-08-04T01:37:28.956Z,28.20
2022-08-04T01:39:43.413Z,28.20
2022-08-04T01:41:51.985Z,28.30
2022-08-04T01:44:05.123Z,28.30
2022-08-04T01:46:11.530Z,28.30
2022-08-04T01:48:20.162Z,28.40
2022-08-04T01:50:29.119Z,28.40
2022-08-04T01:52:33.882Z,28.50
2022-08-04T01:54:42.579Z,28.40
2022-08-04T01:56:49.122Z,28.50
2022-08-04T01:58:53.688Z,28.50
2022-08-04T02:01:12.218Z,28.60
2022-08-04T02:03:18.653Z,28.60
2022-08-04T02:05:27.062Z,28.70
2022-08-04T02:08:17.340Z,28.70
2022-08-04T02:10:44.788Z,28.90
2022-08-04T02:13:10.889Z,29.00
2022-08-04T02:15:47.022Z,29.10
2022-08-04T02:17:58.347Z,29.20
2022-08-04T02:20:24.423Z,29.30
2022-08-04T02:22:33.382Z,29.30
2022-08-04T02:24:52.033Z,29.30
2022-08-04T02:26:58.832Z,29.30
2022-08-04T02:29:20.890Z,29.40
2022-08-04T02:31:48.881Z,29.30
2022-08-04T02:34:08.943Z,29.40
2022-08-04T02:36:35.748Z,29.40
2022-08-04T02:39:03.629Z,29.50
2022-08-04T02:41:09.087Z,29.50
2022-08-04T02:43:18.155Z,29.60
2022-08-04T02:45:44.755Z,29.60
2022-08-04T02:48:29.159Z,29.70
2022-08-04T02:50:28.186Z,29.80
2022-08-04T02:52:33.420Z,29.80
2022-08-04T02:54:41.286Z,29.90
2022-08-04T02:56:50.373Z,29.70
2022-08-04T02:59:03.855Z,29.40
2022-08-04T03:01:08.597Z,29.40
2022-08-04T03:03:29.014Z,29.50
2022-08-04T03:06:00.723Z,29.70
2022-08-04T03:08:40.481Z,29.70
2022-08-04T03:11:16.751Z,29.70
2022-08-04T03:13:44.137Z,29.60
2022-08-04T03:16:14.014Z,29.70
2022-08-04T03:18:43.424Z,29.80
2022-08-04T03:21:15.802Z,30.00
2022-08-04T03:23:44.772Z,30.10
2022-08-04T03:26:09.377Z,30.10
2022-08-04T03:28:46.916Z,29.90
2022-08-04T03:31:07.391Z,29.80
2022-08-04T03:33:36.763Z,30.00
2022-08-04T03:36:16.323Z,30.00
2022-08-04T03:38:55.002Z,30.00
2022-08-04T03:41:51.586Z,30.10
2022-08-04T03:44:25.881Z,30.30
2022-08-04T03:46:56.935Z,30.40
2022-08-04T03:49:33.646Z,30.30
2022-08-04T03:52:24.201Z,30.30
2022-08-04T03:55:07.905Z,30.20
2022-08-04T03:57:46.971Z,30.50
2022-08-04T04:00:26.869Z,30.50
2022-08-04T04:03:06.050Z,30.50
2022-08-04T04:05:41.003Z,30.60
2022-08-04T04:08:35.938Z,30.60
2022-08-04T04:11:13.765Z,30.60
2022-08-04T04:13:35.749Z,30.70
2022-08-04T04:16:21.724Z,30.90
2022-08-04T04:18:53.513Z,31.00
2022-08-04T04:21:11.686Z,31.10
2022-08-04T04:23:48.020Z,31.20
2022-08-04T04:26:17.194Z,31.30
2022-08-04T04:28:47.161Z,31.20
2022-08-04T04:31:23.355Z,31.20
2022-08-04T04:33:53.131Z,31.30
2022-08-04T04:36:20.983Z,31.10
2022-08-04T04:38:35.686Z,31.00
2022-08-04T04:41:11.931Z,31.20
2022-08-04T04:43:56.010Z,31.20
2022-08-04T04:46:19.687Z,31.40
2022-08-04T04:48:48.132Z,31.40
2022-08-04T04:51:10.246Z,31.50
2022-08-04T04:53:31.277Z,31.60
2022-08-04T04:55:45.027Z,31.60
2022-08-04T04:57:56.527Z,31.40
2022-08-04T05:00:03.790Z,31.40
2022-08-04T05:02:34.239Z,31.40
2022-08-04T05:05:12.987Z,31.60
2022-08-04T05:07:59.442Z,31.70
2022-08-04T05:10:50.879Z,31.60
2022-08-04T05:14:37.360Z,31.60
2022-08-04T05:15:56.477Z,31.70
2022-08-04T05:18:00.957Z,31.60
2022-08-04T05:20:35.588Z,31.70
2022-08-04T05:23:03.537Z,31.80
2022-08-04T05:25:22.461Z,31.70
2022-08-04T05:27:39.822Z,31.70
2022-08-04T05:29:54.125Z,31.40
2022-08-04T05:31:59.821Z,31.40
2022-08-04T05:34:15.791Z,31.30
2022-08-04T05:36:39.927Z,31.50
2022-08-04T05:38:45.199Z,31.60
2022-08-04T05:40:50.774Z,31.70
2022-08-04T05:42:59.629Z,31.80
2022-08-04T05:45:04.648Z,31.90
2022-08-04T05:47:09.123Z,31.90
2022-08-04T05:49:21.215Z,32.00
2022-08-04T05:51:26.593Z,32.10
2022-08-04T05:53:31.925Z,32.10
2022-08-04T05:55:57.091Z,32.20
2022-08-04T05:58:03.953Z,32.20
2022-08-04T06:00:31.834Z,32.20
2022-08-04T06:02:34.871Z,32.30
2022-08-04T06:04:41.730Z,32.20
2022-08-04T06:06:46.573Z,32.20
2022-08-04T06:08:55.942Z,32.30
2022-08-04T06:11:03.519Z,32.20
2022-08-04T06:13:49.286Z,32.10
2022-08-04T06:15:46.095Z,32.10
2022-08-04T06:18:35.417Z,32.20
2022-08-04T06:20:22.940Z,32.30
2022-08-04T06:22:31.573Z,32.30
2022-08-04T06:24:37.450Z,32.40
2022-08-04T06:26:41.988Z,32.40
2022-08-04T06:28:53.721Z,32.50
2022-08-04T06:32:28.011Z,32.60
2022-08-04T06:33:54.501Z,32.70
2022-08-04T06:36:05.296Z,32.80
2022-08-04T06:38:10.581Z,32.90
2022-08-04T06:40:30.439Z,33.00
2022-08-04T06:42:41.916Z,33.00
2022-08-04T06:44:48.006Z,32.90
2022-08-04T06:46:52.837Z,32.90
2022-08-04T06:49:01.076Z,33.00
2022-08-04T06:51:28.656Z,33.10
2022-08-04T06:53:33.411Z,33.20
2022-08-04T06:55:42.080Z,33.20
2022-08-04T06:57:47.524Z,33.20
2022-08-04T07:00:12.078Z,33.10
2022-08-04T07:02:19.946Z,33.00
2022-08-04T07:04:24.703Z,33.00
2022-08-04T07:06:29.107Z,33.20
2022-08-04T07:08:38.314Z,33.20
2022-08-04T07:10:43.305Z,33.30
2022-08-04T07:12:47.785Z,33.40
2022-08-04T07:14:55.835Z,33.50
2022-08-04T07:17:00.261Z,33.50
2022-08-04T07:19:10.289Z,33.30
2022-08-04T07:21:25.696Z,33.50
2022-08-04T07:23:30.083Z,33.70
2022-08-04T07:25:59.935Z,33.70
2022-08-04T07:28:04.696Z,33.60
2022-08-04T07:30:09.652Z,33.60
2022-08-04T07:32:14.834Z,33.90
2022-08-04T07:34:22.356Z,33.90
2022-08-04T07:36:30.144Z,34.00
2022-08-04T07:38:37.858Z,34.10
2022-08-04T07:40:55.879Z,34.30
2022-08-04T07:43:00.358Z,34.30
2022-08-04T07:45:05.807Z,34.40
2022-08-04T07:47:22.254Z,34.50
2022-08-04T07:49:55.491Z,34.50
2022-08-04T07:51:55.215Z,34.30
2022-08-04T07:54:04.048Z,34.00
2022-08-04T07:56:09.121Z,34.20
2022-08-04T07:58:13.726Z,34.20
2022-08-04T08:00:22.387Z,34.10
2022-08-04T08:02:27.060Z,34.00
2022-08-04T08:04:31.609Z,34.10
2022-08-04T08:06:43.079Z,34.30
2022-08-04T08:08:47.968Z,34.30
2022-08-04T08:10:52.832Z,34.40
2022-08-04T08:13:01.773Z,34.50
2022-08-04T08:15:15.921Z,34.50
2022-08-04T08:17:20.904Z,34.60
2022-08-04T08:19:29.427Z,34.50
2022-08-04T08:21:33.875Z,34.30
2022-08-04T08:23:38.963Z,34.20
2022-08-04T08:25:47.424Z,34.00
2022-08-04T08:27:56.031Z,34.00
2022-08-04T08:30:01.187Z,34.10
2022-08-04T08:32:10.109Z,34.30
2022-08-04T08:34:14.588Z,34.30
2022-08-04T08:37:14.123Z,34.20
2022-08-04T08:39:24.739Z,34.20
2022-08-04T08:41:53.412Z,34.30
2022-08-04T08:44:36.306Z,34.20
2022-08-04T08:47:03.731Z,34.20
2022-08-04T08:50:02.765Z,34.20
2022-08-04T08:53:01.470Z,34.20
2022-08-04T08:55:30.584Z,34.40
2022-08-04T08:57:43.986Z,34.30
2022-08-04T09:00:31.964Z,34.20
2022-08-04T09:03:03.921Z,34.20
2022-08-04T09:05:34.212Z,34.30
2022-08-04T09:08:08.690Z,34.20
2022-08-04T09:10:33.403Z,34.00
2022-08-04T09:12:59.354Z,34.00
2022-08-04T09:15:21.935Z,33.90
2022-08-04T09:17:39.012Z,33.80
2022-08-04T09:20:08.067Z,33.80
2022-08-04T09:22:36.339Z,33.70
2022-08-04T09:25:09.098Z,33.60
2022-08-04T09:27:29.696Z,33.50
2022-08-04T09:29:56.011Z,33.40
2022-08-04T09:32:25.754Z,33.30
2022-08-04T09:35:14.936Z,33.30
2022-08-04T09:37:45.584Z,33.40
2022-08-04T09:40:07.140Z,33.30
2022-08-04T09:42:45.720Z,33.40
2022-08-04T09:45:06.311Z,33.40
2022-08-04T09:47:39.112Z,33.30
2022-08-04T09:50:18.507Z,33.30
2022-08-04T09:52:49.779Z,33.20
2022-08-04T09:55:04.266Z,33.10
2022-08-04T09:57:27.911Z,33.30
2022-08-04T10:00:03.028Z,33.30
2022-08-04T10:02:18.459Z,33.40
2022-08-04T10:04:25.517Z,33.50
2022-08-04T10:07:03.573Z,33.50
2022-08-04T10:09:49.292Z,33.40
2022-08-04T10:12:19.001Z,33.50
2022-08-04T10:14:56.137Z,33.50
2022-08-04T10:17:16.614Z,33.50
2022-08-04T10:19:33.024Z,33.50
2022-08-04T10:21:59.959Z,33.50
2022-08-04T10:25:00.813Z,33.40
2022-08-04T10:27:21.284Z,33.30
2022-08-04T10:29:39.932Z,33.20
2022-08-04T10:32:01.252Z,33.20
2022-08-04T10:34:15.972Z,33.30
2022-08-04T10:36:22.920Z,33.30
2022-08-04T10:38:59.574Z,33.20
2022-08-04T10:41:08.328Z,33.10
2022-08-04T10:43:25.768Z,33.00
2022-08-04T10:45:58.089Z,33.10
2022-08-04T10:48:35.861Z,33.00
2022-08-04T10:50:41.706Z,33.00
2022-08-04T10:53:14.780Z,32.90
2022-08-04T10:56:07.879Z,32.90
2022-08-04T10:57:54.188Z,32.80
2022-08-04T11:00:10.206Z,32.70
2022-08-04T11:02:46.853Z,32.70
2022-08-04T11:05:03.146Z,32.60
2022-08-04T11:07:07.621Z,32.60
2022-08-04T11:09:15.163Z,32.60
2022-08-04T11:11:57.099Z,32.60
2022-08-04T11:14:10.532Z,32.50
2022-08-04T11:16:35.018Z,32.40
2022-08-04T11:19:11.308Z,32.30
2022-08-04T11:21:23.451Z,32.30
2022-08-04T11:23:35.041Z,32.30
2022-08-04T11:26:02.879Z,32.30
2022-08-04T11:28:32.626Z,32.20
2022-08-04T11:31:00.254Z,32.10
2022-08-04T11:33:44.246Z,32.10
2022-08-04T11:36:10.353Z,32.10
2022-08-04T11:38:53.643Z,32.20
2022-08-04T11:41:05.561Z,32.10
2022-08-04T11:44:00.692Z,32.10
2022-08-04T11:45:53.425Z,32.00
2022-08-04T11:48:01.972Z,32.00
2022-08-04T11:50:39.524Z,32.00
2022-08-04T11:52:45.072Z,32.00
2022-08-04T11:54:54.781Z,31.90
2022-08-04T11:57:01.546Z,31.90
2022-08-04T11:59:06.902Z,31.90
2022-08-04T12:01:46.332Z,31.90
2022-08-04T12:04:23.903Z,31.90
2022-08-04T12:06:50.420Z,31.80
2022-08-04T12:09:29.542Z,31.80
2022-08-04T12:12:02.727Z,31.90
2022-08-04T12:14:41.838Z,31.90
2022-08-04T12:16:54.101Z,31.80
2022-08-04T12:19:00.111Z,31.80
2022-08-04T12:21:15.035Z,31.80
2022-08-04T12:23:35.707Z,31.70
2022-08-04T12:25:44.847Z,31.80
2022-08-04T12:28:05.996Z,31.60
2022-08-04T12:31:01.238Z,31.60
2022-08-04T12:32:48.116Z,31.60
2022-08-04T12:35:17.872Z,31.60
2022-08-04T12:37:41.278Z,31.60
2022-08-04T12:47:28.222Z,31.50
2022-08-04T12:49:31.136Z,31.50
2022-08-04T12:56:43.232Z,31.50
2022-08-04T12:58:55.056Z,31.50
2022-08-04T13:02:09.543Z,31.40
2022-08-04T13:04:09.068Z,31.40
2022-08-04T13:06:28.331Z,31.30
2022-08-04T13:08:33.154Z,31.30
2022-08-04T13:10:48.700Z,31.30
2022-08-04T13:12:58.281Z,31.30
2022-08-04T13:15:18.127Z,31.30
2022-08-04T13:17:28.117Z,31.30
2022-08-04T13:19:41.788Z,31.30
2022-08-04T13:21:49.976Z,31.30
2022-08-04T13:24:21.885Z,31.30
2022-08-04T13:26:42.976Z,31.20
2022-08-04T13:28:53.784Z,31.20
2022-08-04T13:31:03.390Z,31.20
2022-08-04T13:33:10.838Z,31.20
2022-08-04T13:35:15.948Z,31.10
2022-08-04T13:37:25.449Z,31.10
2022-08-04T13:39:32.725Z,31.10
2022-08-04T13:41:42.574Z,31.10
2022-08-04T13:44:18.444Z,31.10
2022-08-04T13:46:30.103Z,31.10
2022-08-04T13:48:39.778Z,31.10
2022-08-04T13:50:49.697Z,31.00
2022-08-04T13:52:59.145Z,31.00
2022-08-04T13:55:03.965Z,31.00
2022-08-04T13:57:31.104Z,31.00
2022-08-04T13:59:37.944Z,31.00
2022-08-04T14:01:48.677Z,31.00
2022-08-04T14:04:21.121Z,31.00
2022-08-04T14:06:31.917Z,31.00
2022-08-04T14:08:37.910Z,31.00
2022-08-04T14:10:42.489Z,30.90
2022-08-04T14:12:50.117Z,30.90
2022-08-04T14:14:55.576Z,30.90
2022-08-04T14:17:16.386Z,30.90
2022-08-04T14:19:31.057Z,30.90
2022-08-04T14:21:40.749Z,30.80
2022-08-04T14:24:01.045Z,30.80
2022-08-04T14:26:36.660Z,30.80
2022-08-04T14:29:25.068Z,30.80
2022-08-04T14:31:30.397Z,30.80
2022-08-04T14:34:02.569Z,30.70
2022-08-04T14:36:04.898Z,30.70
2022-08-04T14:38:12.625Z,30.60
2022-08-04T14:40:35.498Z,30.50
2022-08-04T14:42:54.552Z,30.10
2022-08-04T14:45:05.270Z,30.10
2022-08-04T14:47:13.316Z,30.20
2022-08-04T14:49:18.406Z,30.30
2022-08-04T14:51:36.616Z,30.30
2022-08-04T14:53:41.797Z,30.40
2022-08-04T14:55:57.931Z,30.50
2022-08-04T14:58:35.315Z,30.50
2022-08-04T15:00:35.817Z,30.50
2022-08-04T15:02:40.954Z,30.50
2022-08-04T15:04:47.873Z,30.50
2022-08-04T15:06:53.305Z,30.30
2022-08-04T15:08:59.563Z,30.20
2022-08-04T15:11:08.026Z,30.20
2022-08-04T15:13:14.617Z,29.90
2022-08-04T15:15:35.958Z,29.80
2022-08-04T15:17:45.585Z,29.90
2022-08-04T15:19:55.718Z,29.90
2022-08-04T15:22:00.548Z,29.90
2022-08-04T15:24:09.209Z,30.00
2022-08-04T15:26:15.249Z,30.10
2022-08-04T15:28:21.364Z,30.10
2022-08-04T15:30:32.848Z,30.00
2022-08-04T15:32:44.889Z,30.00
2022-08-04T15:34:50.637Z,30.10
2022-08-04T15:36:59.886Z,30.10
2022-08-04T15:39:43.582Z,30.10
2022-08-04T15:42:15.038Z,30.00
2022-08-04T15:44:46.393Z,30.00
2022-08-04T15:47:16.491Z,30.00
2022-08-04T15:49:26.862Z,30.00
2022-08-04T15:51:32.891Z,30.00
2022-08-04T15:54:23.459Z,29.90
2022-08-04T15:57:01.501Z,30.00
2022-08-04T15:59:09.615Z,30.00
2022-08-04T16:01:20.077Z,30.00
2022-08-04T16:03:58.366Z,30.00
2022-08-04T16:06:47.421Z,30.00
2022-08-04T16:09:01.129Z,30.00
2022-08-04T16:11:06.051Z,29.90
2022-08-04T16:13:17.992Z,29.90
2022-08-04T16:15:38.295Z,29.90
2022-08-04T16:17:43.582Z,29.90
2022-08-04T16:20:10.989Z,29.90
2022-08-04T16:22:29.601Z,29.90
2022-08-04T16:24:38.769Z,29.90
2022-08-04T16:26:54.990Z,29.90
2022-08-04T16:29:03.235Z,29.80
2022-08-04T16:31:08.981Z,29.80
2022-08-04T16:33:15.105Z,29.80
2022-08-04T16:35:29.497Z,29.70
2022-08-04T16:37:40.785Z,29.70
2022-08-04T16:39:50.994Z,29.80
2022-08-04T16:41:56.233Z,29.80
2022-08-04T16:44:52.598Z,29.70
2022-08-04T16:47:21.687Z,29.70
2022-08-04T16:49:23.003Z,29.70
2022-08-04T16:51:32.879Z,29.70
2022-08-04T16:53:52.971Z,29.70
2022-08-04T16:56:02.674Z,29.70
2022-08-04T16:58:07.580Z,29.50
2022-08-04T17:00:18.093Z,29.50
2022-08-04T17:02:26.958Z,29.50
2022-08-04T17:04:32.403Z,29.60
2022-08-04T17:06:42.957Z,29.60
2022-08-04T17:08:47.808Z,29.60
2022-08-04T17:10:52.595Z,29.60
2022-08-04T17:13:28.046Z,29.60
2022-08-04T17:15:26.354Z,29.50
2022-08-04T17:18:03.803Z,29.50
2022-08-04T17:19:59.406Z,29.30
2022-08-04T17:22:10.664Z,29.40
2022-08-04T17:24:17.851Z,29.40
2022-08-04T17:26:39.907Z,29.40
2022-08-04T17:28:56.391Z,29.40
2022-08-04T17:31:03.179Z,29.40
2022-08-04T17:33:14.997Z,29.40
2022-08-04T17:35:20.113Z,29.40
2022-08-04T17:37:52.122Z,29.30
2022-08-04T17:39:56.991Z,29.30
2022-08-04T17:42:01.615Z,29.30
2022-08-04T17:44:11.979Z,29.40
2022-08-04T17:46:48.801Z,29.30
2022-08-04T17:49:05.449Z,29.30
2022-08-04T17:51:21.638Z,29.30
2022-08-04T17:54:02.648Z,29.30
2022-08-04T17:56:08.223Z,29.20
2022-08-04T17:58:21.681Z,29.20
2022-08-04T18:00:33.477Z,29.20
2022-08-04T18:02:39.964Z,29.20
2022-08-04T18:05:06.907Z,29.30
2022-08-04T18:08:35.124Z,29.20
2022-08-04T18:10:27.687Z,29.10
2022-08-04T18:12:33.304Z,29.10
2022-08-04T18:14:52.432Z,29.00
2022-08-04T18:18:19.666Z,29.00
2022-08-04T18:19:33.100Z,29.10
2022-08-04T18:24:35.005Z,29.10
2022-08-04T18:26:56.843Z,29.00
2022-08-04T18:29:04.859Z,29.00
2022-08-04T18:31:11.803Z,29.00
2022-08-04T18:33:41.286Z,29.00
2022-08-04T18:36:37.014Z,29.00
2022-08-04T18:38:22.867Z,29.00
2022-08-04T18:40:39.016Z,29.00
2022-08-04T18:42:55.355Z,29.00
2022-08-04T18:45:03.344Z,29.10
2022-08-04T18:47:22.469Z,29.00
2022-08-04T18:51:56.017Z,29.00
2022-08-04T18:54:02.954Z,29.00
2022-08-04T18:58:34.659Z,29.00
2022-08-04T19:00:45.523Z,29.00
2022-08-04T19:02:51.204Z,29.00
2022-08-04T19:04:57.674Z,29.00
2022-08-04T19:07:29.207Z,28.90
2022-08-04T19:09:51.040Z,28.90
2022-08-04T19:11:56.086Z,29.00
2022-08-04T19:14:03.984Z,29.00
2022-08-04T19:16:16.640Z,28.90
2022-08-04T19:18:23.625Z,28.90
2022-08-04T19:20:31.391Z,28.90
2022-08-04T19:24:11.474Z,28.90
2022-08-04T19:25:02.391Z,28.90
2022-08-04T19:27:10.452Z,28.90
2022-08-04T19:29:16.001Z,28.90
2022-08-04T19:31:34.112Z,28.90
2022-08-04T19:33:59.354Z,28.90
2022-08-04T19:36:09.900Z,28.80
2022-08-04T19:38:18.564Z,28.80
2022-08-04T19:40:33.766Z,28.80
2022-08-04T19:42:40.476Z,28.80
2022-08-04T19:44:46.838Z,28.80
2022-08-04T19:46:55.421Z,28.80
2022-08-04T19:49:05.042Z,28.80
2022-08-04T19:51:11.610Z,28.80
2022-08-04T19:53:36.987Z,28.70
2022-08-04T19:55:42.106Z,28.70
2022-08-04T19:57:56.319Z,28.60
2022-08-04T20:00:02.903Z,28.70
2022-08-04T20:02:09.366Z,28.70
2022-08-04T20:04:20.831Z,28.70
2022-08-04T20:06:29.351Z,28.70
2022-08-04T20:08:34.713Z,28.70
2022-08-04T20:10:51.149Z,28.70
2022-08-04T20:12:59.956Z,28.70
2022-08-04T20:15:04.727Z,28.60
2022-08-04T20:17:11.745Z,28.50
2022-08-04T20:19:18.204Z,28.60
2022-08-04T20:21:24.418Z,28.60
2022-08-04T20:23:50.132Z,28.50
2022-08-04T20:25:56.710Z,28.50
2022-08-04T20:28:01.357Z,28.40
2022-08-04T20:30:16.361Z,28.50
2022-08-04T20:32:28.819Z,28.40
2022-08-04T20:34:33.537Z,28.50
2022-08-04T20:36:50.027Z,28.50
2022-08-04T20:38:57.662Z,28.50
2022-08-04T20:41:02.989Z,28.50
2022-08-04T20:43:09.741Z,28.50
2022-08-04T20:47:41.371Z,28.40
2022-08-04T20:49:47.784Z,28.50
2022-08-04T20:51:54.456Z,28.40
2022-08-04T20:53:58.847Z,28.40
2022-08-04T20:56:03.313Z,28.40
2022-08-04T20:58:13.209Z,28.40
2022-08-04T21:00:26.440Z,28.40
2022-08-04T21:02:38.524Z,28.40
2022-08-04T21:04:48.665Z,28.50
2022-08-04T21:06:53.365Z,28.40
2022-08-04T21:08:59.995Z,28.40
2022-08-04T21:11:16.280Z,28.40
2022-08-04T21:13:25.354Z,28.40
2022-08-04T21:15:58.222Z,28.30
2022-08-04T21:18:06.580Z,28.40
2022-08-04T21:20:12.884Z,28.40
2022-08-04T21:22:29.872Z,28.30
2022-08-04T21:24:40.003Z,28.40
2022-08-04T21:26:46.560Z,28.30
2022-08-04T21:28:53.920Z,28.30
2022-08-04T21:31:11.089Z,28.30
2022-08-04T21:33:50.295Z,28.20
2022-08-04T21:35:54.603Z,28.20
2022-08-04T21:38:01.508Z,28.20
2022-08-04T21:40:14.228Z,28.20
2022-08-04T21:42:27.866Z,28.20
2022-08-04T21:44:32.936Z,28.10
2022-08-04T21:46:44.318Z,28.10
2022-08-04T21:48:51.066Z,28.10
2022-08-04T21:50:56.155Z,28.10
2022-08-04T21:53:01.719Z,28.10
2022-08-04T21:55:08.628Z,28.10
2022-08-04T21:57:15.368Z,28.10
2022-08-04T21:59:23.737Z,28.10
2022-08-04T22:04:05.032Z,28.10
2022-08-04T22:06:10.574Z,28.20
2022-08-04T22:08:23.796Z,28.20
2022-08-04T22:10:34.799Z,28.10
2022-08-04T22:12:39.089Z,28.10
2022-08-04T22:14:57.737Z,28.10
2022-08-04T22:17:06.030Z,28.20
2022-08-04T22:19:10.849Z,28.10
2022-08-04T22:21:17.326Z,28.10
2022-08-04T22:23:30.440Z,28.10
2022-08-04T22:25:53.677Z,28.00
2022-08-04T22:28:04.488Z,28.00
2022-08-04T22:30:17.311Z,27.90
2022-08-04T22:32:22.340Z,27.90
2022-08-04T22:34:30.522Z,27.90
2022-08-04T22:36:37.110Z,27.90
2022-08-04T22:38:48.594Z,28.00
2022-08-04T22:41:03.692Z,27.90
2022-08-04T22:43:31.997Z,28.00
2022-08-04T22:45:44.236Z,28.00
2022-08-04T22:47:53.520Z,27.90
2022-08-04T22:50:20.813Z,27.90
2022-08-04T22:52:32.112Z,28.00
2022-08-04T22:54:38.876Z,28.00
2022-08-04T22:56:45.513Z,28.00
2022-08-04T22:58:56.314Z,28.00
2022-08-04T23:01:04.469Z,28.00
2022-08-04T23:03:37.374Z,28.00
2022-08-04T23:05:40.663Z,28.00
2022-08-04T23:07:51.339Z,28.00
2022-08-04T23:09:58.486Z,27.90
2022-08-04T23:12:25.089Z,28.00
2022-08-04T23:14:31.914Z,28.00
2022-08-04T23:16:42.052Z,27.90
2022-08-04T23:18:48.394Z,27.90
2022-08-04T23:20:56.029Z,27.90
2022-08-04T23:23:12.276Z,27.90
2022-08-04T23:25:33.099Z,28.00
2022-08-04T23:27:52.299Z,28.00
2022-08-04T23:29:59.133Z,28.00
2022-08-04T23:32:03.920Z,28.10
2022-08-04T23:34:12.186Z,28.00
2022-08-04T23:36:17.880Z,28.00
2022-08-04T23:38:31.845Z,28.00
2022-08-04T23:40:50.016Z,28.10
2022-08-04T23:42:56.855Z,28.10
2022-08-04T23:45:01.684Z,28.10
2022-08-04T23:47:08.918Z,28.00
2022-08-04T23:49:16.761Z,28.00
2022-08-04T23:51:21.690Z,28.20
2022-08-04T23:53:28.120Z,28.20
2022-08-04T23:55:33.929Z,28.20
2022-08-04T23:58:06.243Z,28.20
